sensor_id;sensor_type;location;lat;lon;timestamp;P1;durP1;ratioP1;P2;durP2;ratioP2
13580;SDS011;6861;46.170;7.222;2023-12-20T00:02:23;18.65;;;13.15;;
13580;SDS011;6861;46.170;7.222;2023-12-20T00:04:53;21.23;;;13.18;;
13580;SDS011;6861;46.170;7.222;2023-12-20T00:07:21;20.48;;;12.50;;
13580;SDS011;6861;46.170;7.222;2023-12-20T00:09:49;19.70;;;12.90;;
13580;SDS011;6861;46.170;7.222;2023-12-20T00:12:18;20.77;;;13.40;;
13580;SDS011;6861;46.170;7.222;2023-12-20T00:14:46;18.58;;;12.73;;
13580;SDS011;6861;46.170;7.222;2023-12-20T00:17:14;25.35;;;13.00;;
13580;SDS011;6861;46.170;7.222;2023-12-20T00:19:42;19.73;;;13.48;;
13580;SDS011;6861;46.170;7.222;2023-12-20T00:22:12;22.52;;;13.65;;
13580;SDS011;6861;46.170;7.222;2023-12-20T00:24:40;22.23;;;13.52;;
13580;SDS011;6861;46.170;7.222;2023-12-20T00:27:09;20.35;;;12.90;;
13580;SDS011;6861;46.170;7.222;2023-12-20T00:29:37;19.08;;;12.82;;
13580;SDS011;6861;46.170;7.222;2023-12-20T00:32:06;18.00;;;11.90;;
13580;SDS011;6861;46.170;7.222;2023-12-20T00:34:34;15.57;;;10.27;;
13580;SDS011;6861;46.170;7.222;2023-12-20T00:37:02;16.00;;;10.80;;
13580;SDS011;6861;46.170;7.222;2023-12-20T00:39:32;15.43;;;9.90;;
13580;SDS011;6861;46.170;7.222;2023-12-20T00:42:01;14.18;;;9.07;;
13580;SDS011;6861;46.170;7.222;2023-12-20T00:44:29;14.30;;;10.20;;
13580;SDS011;6861;46.170;7.222;2023-12-20T00:46:57;15.10;;;10.07;;
13580;SDS011;6861;46.170;7.222;2023-12-20T00:49:25;13.05;;;8.35;;
13580;SDS011;6861;46.170;7.222;2023-12-20T00:51:54;14.20;;;9.25;;
13580;SDS011;6861;46.170;7.222;2023-12-20T00:54:22;17.92;;;10.00;;
13580;SDS011;6861;46.170;7.222;2023-12-20T00:56:52;16.05;;;10.10;;
13580;SDS011;6861;46.170;7.222;2023-12-20T00:59:20;19.50;;;10.70;;
13580;SDS011;6861;46.170;7.222;2023-12-20T01:01:49;17.15;;;11.00;;
13580;SDS011;6861;46.170;7.222;2023-12-20T01:04:18;15.68;;;10.38;;
13580;SDS011;6861;46.170;7.222;2023-12-20T01:06:46;14.65;;;9.30;;
13580;SDS011;6861;46.170;7.222;2023-12-20T01:09:14;14.90;;;9.02;;
13580;SDS011;6861;46.170;7.222;2023-12-20T01:11:42;13.90;;;8.98;;
13580;SDS011;6861;46.170;7.222;2023-12-20T01:14:12;16.92;;;9.48;;
13580;SDS011;6861;46.170;7.222;2023-12-20T01:16:40;13.68;;;9.13;;
13580;SDS011;6861;46.170;7.222;2023-12-20T01:19:08;15.38;;;9.93;;
13580;SDS011;6861;46.170;7.222;2023-12-20T01:21:37;13.52;;;9.10;;
13580;SDS011;6861;46.170;7.222;2023-12-20T01:24:05;13.20;;;9.25;;
13580;SDS011;6861;46.170;7.222;2023-12-20T01:26:33;13.40;;;9.02;;
13580;SDS011;6861;46.170;7.222;2023-12-20T01:29:02;14.50;;;9.90;;
13580;SDS011;6861;46.170;7.222;2023-12-20T01:31:31;17.17;;;11.02;;
13580;SDS011;6861;46.170;7.222;2023-12-20T01:34:00;19.05;;;10.85;;
13580;SDS011;6861;46.170;7.222;2023-12-20T01:36:28;19.67;;;11.77;;
13580;SDS011;6861;46.170;7.222;2023-12-20T01:38:56;17.67;;;11.23;;
13580;SDS011;6861;46.170;7.222;2023-12-20T01:41:25;21.17;;;12.00;;
13580;SDS011;6861;46.170;7.222;2023-12-20T01:43:53;18.75;;;11.93;;
13580;SDS011;6861;46.170;7.222;2023-12-20T01:46:21;18.15;;;11.52;;
13580;SDS011;6861;46.170;7.222;2023-12-20T01:48:51;18.98;;;12.20;;
13580;SDS011;6861;46.170;7.222;2023-12-20T01:51:19;19.95;;;12.20;;
13580;SDS011;6861;46.170;7.222;2023-12-20T01:53:48;17.42;;;11.82;;
13580;SDS011;6861;46.170;7.222;2023-12-20T01:56:17;21.58;;;13.90;;
13580;SDS011;6861;46.170;7.222;2023-12-20T01:58:46;21.98;;;13.95;;
13580;SDS011;6861;46.170;7.222;2023-12-20T02:01:15;21.85;;;14.20;;
13580;SDS011;6861;46.170;7.222;2023-12-20T02:03:45;20.85;;;13.50;;
13580;SDS011;6861;46.170;7.222;2023-12-20T02:06:15;22.45;;;14.55;;
13580;SDS011;6861;46.170;7.222;2023-12-20T02:08:45;23.33;;;15.27;;
13580;SDS011;6861;46.170;7.222;2023-12-20T02:11:14;21.85;;;15.25;;
13580;SDS011;6861;46.170;7.222;2023-12-20T02:13:42;23.55;;;15.07;;
13580;SDS011;6861;46.170;7.222;2023-12-20T02:16:10;23.02;;;14.98;;
13580;SDS011;6861;46.170;7.222;2023-12-20T02:18:39;27.65;;;17.23;;
13580;SDS011;6861;46.170;7.222;2023-12-20T02:21:07;28.30;;;17.13;;
13580;SDS011;6861;46.170;7.222;2023-12-20T02:23:38;25.48;;;14.85;;
13580;SDS011;6861;46.170;7.222;2023-12-20T02:26:07;22.48;;;14.05;;
13580;SDS011;6861;46.170;7.222;2023-12-20T02:28:35;22.80;;;13.80;;
13580;SDS011;6861;46.170;7.222;2023-12-20T02:31:03;27.73;;;15.60;;
13580;SDS011;6861;46.170;7.222;2023-12-20T02:33:32;25.25;;;15.65;;
13580;SDS011;6861;46.170;7.222;2023-12-20T02:36:00;22.85;;;14.27;;
13580;SDS011;6861;46.170;7.222;2023-12-20T02:38:28;21.63;;;14.85;;
13580;SDS011;6861;46.170;7.222;2023-12-20T02:40:58;21.73;;;14.02;;
13580;SDS011;6861;46.170;7.222;2023-12-20T02:43:26;21.42;;;14.40;;
13580;SDS011;6861;46.170;7.222;2023-12-20T02:45:54;21.17;;;13.40;;
13580;SDS011;6861;46.170;7.222;2023-12-20T02:48:23;25.90;;;15.60;;
13580;SDS011;6861;46.170;7.222;2023-12-20T02:50:51;21.52;;;13.13;;
13580;SDS011;6861;46.170;7.222;2023-12-20T02:53:20;22.17;;;13.48;;
13580;SDS011;6861;46.170;7.222;2023-12-20T02:55:48;21.25;;;12.38;;
13580;SDS011;6861;46.170;7.222;2023-12-20T02:58:17;19.85;;;12.15;;
13580;SDS011;6861;46.170;7.222;2023-12-20T03:00:46;19.08;;;11.82;;
13580;SDS011;6861;46.170;7.222;2023-12-20T03:03:14;18.35;;;11.85;;
13580;SDS011;6861;46.170;7.222;2023-12-20T03:05:42;19.80;;;12.52;;
13580;SDS011;6861;46.170;7.222;2023-12-20T03:08:12;20.77;;;12.50;;
13580;SDS011;6861;46.170;7.222;2023-12-20T03:10:41;19.60;;;12.43;;
13580;SDS011;6861;46.170;7.222;2023-12-20T03:13:09;22.70;;;12.18;;
13580;SDS011;6861;46.170;7.222;2023-12-20T03:15:39;21.27;;;13.23;;
13580;SDS011;6861;46.170;7.222;2023-12-20T03:18:07;18.83;;;11.93;;
13580;SDS011;6861;46.170;7.222;2023-12-20T03:20:35;16.08;;;10.80;;
13580;SDS011;6861;46.170;7.222;2023-12-20T03:23:03;18.05;;;10.93;;
13580;SDS011;6861;46.170;7.222;2023-12-20T03:25:32;16.75;;;10.57;;
13580;SDS011;6861;46.170;7.222;2023-12-20T03:28:00;17.58;;;10.55;;
13580;SDS011;6861;46.170;7.222;2023-12-20T03:30:28;21.08;;;12.77;;
13580;SDS011;6861;46.170;7.222;2023-12-20T03:32:58;18.77;;;10.73;;
13580;SDS011;6861;46.170;7.222;2023-12-20T03:35:26;21.55;;;11.82;;
13580;SDS011;6861;46.170;7.222;2023-12-20T03:37:55;18.38;;;11.75;;
13580;SDS011;6861;46.170;7.222;2023-12-20T03:40:23;20.10;;;11.63;;
13580;SDS011;6861;46.170;7.222;2023-12-20T03:42:51;15.93;;;10.75;;
13580;SDS011;6861;46.170;7.222;2023-12-20T03:45:20;17.77;;;10.20;;
13580;SDS011;6861;46.170;7.222;2023-12-20T03:47:48;20.73;;;11.63;;
13580;SDS011;6861;46.170;7.222;2023-12-20T03:50:18;15.27;;;9.57;;
13580;SDS011;6861;46.170;7.222;2023-12-20T03:52:46;14.40;;;9.00;;
13580;SDS011;6861;46.170;7.222;2023-12-20T03:55:14;15.02;;;9.38;;
13580;SDS011;6861;46.170;7.222;2023-12-20T03:57:43;15.10;;;9.05;;
13580;SDS011;6861;46.170;7.222;2023-12-20T04:00:12;16.50;;;9.52;;
13580;SDS011;6861;46.170;7.222;2023-12-20T04:02:41;15.18;;;10.20;;
13580;SDS011;6861;46.170;7.222;2023-12-20T04:05:10;15.93;;;10.35;;
13580;SDS011;6861;46.170;7.222;2023-12-20T04:07:39;19.90;;;11.57;;
13580;SDS011;6861;46.170;7.222;2023-12-20T04:10:08;20.20;;;10.77;;
13580;SDS011;6861;46.170;7.222;2023-12-20T04:12:37;17.02;;;10.30;;
13580;SDS011;6861;46.170;7.222;2023-12-20T04:15:05;14.38;;;9.45;;
13580;SDS011;6861;46.170;7.222;2023-12-20T04:17:36;18.48;;;10.13;;
13580;SDS011;6861;46.170;7.222;2023-12-20T04:20:05;14.32;;;8.88;;
13580;SDS011;6861;46.170;7.222;2023-12-20T04:22:34;16.50;;;9.52;;
13580;SDS011;6861;46.170;7.222;2023-12-20T04:25:04;19.20;;;10.43;;
13580;SDS011;6861;46.170;7.222;2023-12-20T04:27:32;18.50;;;10.27;;
13580;SDS011;6861;46.170;7.222;2023-12-20T04:30:00;18.83;;;11.20;;
13580;SDS011;6861;46.170;7.222;2023-12-20T04:32:28;19.10;;;11.30;;
13580;SDS011;6861;46.170;7.222;2023-12-20T04:34:56;18.38;;;10.43;;
13580;SDS011;6861;46.170;7.222;2023-12-20T04:37:25;21.27;;;11.63;;
13580;SDS011;6861;46.170;7.222;2023-12-20T04:39:53;19.98;;;11.90;;
13580;SDS011;6861;46.170;7.222;2023-12-20T04:42:23;18.27;;;11.15;;
13580;SDS011;6861;46.170;7.222;2023-12-20T04:44:51;35.95;;;17.55;;
13580;SDS011;6861;46.170;7.222;2023-12-20T04:47:19;21.83;;;13.75;;
13580;SDS011;6861;46.170;7.222;2023-12-20T04:49:47;18.02;;;11.65;;
13580;SDS011;6861;46.170;7.222;2023-12-20T04:52:15;16.15;;;11.23;;
13580;SDS011;6861;46.170;7.222;2023-12-20T04:54:44;19.48;;;12.05;;
13580;SDS011;6861;46.170;7.222;2023-12-20T04:57:12;18.15;;;10.88;;
13580;SDS011;6861;46.170;7.222;2023-12-20T04:59:42;17.38;;;10.40;;
13580;SDS011;6861;46.170;7.222;2023-12-20T05:02:10;20.00;;;10.25;;
13580;SDS011;6861;46.170;7.222;2023-12-20T05:04:38;15.57;;;10.43;;
13580;SDS011;6861;46.170;7.222;2023-12-20T05:07:06;13.85;;;9.25;;
13580;SDS011;6861;46.170;7.222;2023-12-20T05:09:35;15.70;;;9.95;;
13580;SDS011;6861;46.170;7.222;2023-12-20T05:12:03;15.60;;;9.90;;
13580;SDS011;6861;46.170;7.222;2023-12-20T05:14:33;15.18;;;10.48;;
13580;SDS011;6861;46.170;7.222;2023-12-20T05:17:02;16.65;;;9.20;;
13580;SDS011;6861;46.170;7.222;2023-12-20T05:19:31;15.35;;;9.88;;
13580;SDS011;6861;46.170;7.222;2023-12-20T05:22:02;15.60;;;9.98;;
13580;SDS011;6861;46.170;7.222;2023-12-20T05:24:30;14.25;;;9.48;;
13580;SDS011;6861;46.170;7.222;2023-12-20T05:26:58;16.38;;;9.90;;
13580;SDS011;6861;46.170;7.222;2023-12-20T05:29:26;14.38;;;9.55;;
13580;SDS011;6861;46.170;7.222;2023-12-20T05:31:55;18.02;;;9.98;;
13580;SDS011;6861;46.170;7.222;2023-12-20T05:34:24;14.18;;;9.57;;
13580;SDS011;6861;46.170;7.222;2023-12-20T05:36:53;15.32;;;10.27;;
13580;SDS011;6861;46.170;7.222;2023-12-20T05:39:21;14.45;;;10.32;;
13580;SDS011;6861;46.170;7.222;2023-12-20T05:41:50;13.80;;;9.43;;
13580;SDS011;6861;46.170;7.222;2023-12-20T05:44:18;17.63;;;10.23;;
13580;SDS011;6861;46.170;7.222;2023-12-20T05:46:46;15.02;;;9.75;;
13580;SDS011;6861;46.170;7.222;2023-12-20T05:49:14;10.88;;;7.72;;
13580;SDS011;6861;46.170;7.222;2023-12-20T05:51:44;14.50;;;9.68;;
13580;SDS011;6861;46.170;7.222;2023-12-20T05:54:13;13.98;;;9.07;;
13580;SDS011;6861;46.170;7.222;2023-12-20T05:56:41;12.52;;;8.65;;
13580;SDS011;6861;46.170;7.222;2023-12-20T05:59:09;16.48;;;10.10;;
13580;SDS011;6861;46.170;7.222;2023-12-20T06:01:37;16.58;;;9.55;;
13580;SDS011;6861;46.170;7.222;2023-12-20T06:04:06;15.43;;;10.38;;
13580;SDS011;6861;46.170;7.222;2023-12-20T06:06:34;15.77;;;10.15;;
13580;SDS011;6861;46.170;7.222;2023-12-20T06:09:09;16.92;;;10.85;;
13580;SDS011;6861;46.170;7.222;2023-12-20T06:11:37;19.95;;;13.02;;
13580;SDS011;6861;46.170;7.222;2023-12-20T06:14:06;16.90;;;10.63;;
13580;SDS011;6861;46.170;7.222;2023-12-20T06:16:34;19.20;;;10.75;;
13580;SDS011;6861;46.170;7.222;2023-12-20T06:19:02;17.35;;;12.30;;
13580;SDS011;6861;46.170;7.222;2023-12-20T06:21:30;16.38;;;10.57;;
13580;SDS011;6861;46.170;7.222;2023-12-20T06:23:59;15.00;;;10.13;;
13580;SDS011;6861;46.170;7.222;2023-12-20T06:26:29;14.93;;;10.32;;
13580;SDS011;6861;46.170;7.222;2023-12-20T06:28:57;16.15;;;10.82;;
13580;SDS011;6861;46.170;7.222;2023-12-20T06:31:25;23.52;;;14.25;;
13580;SDS011;6861;46.170;7.222;2023-12-20T06:33:53;24.63;;;15.32;;
13580;SDS011;6861;46.170;7.222;2023-12-20T06:36:24;18.52;;;12.18;;
13580;SDS011;6861;46.170;7.222;2023-12-20T06:38:52;17.50;;;11.00;;
13580;SDS011;6861;46.170;7.222;2023-12-20T06:41:21;13.20;;;9.25;;
13580;SDS011;6861;46.170;7.222;2023-12-20T06:43:52;15.23;;;8.30;;
13580;SDS011;6861;46.170;7.222;2023-12-20T06:46:20;13.45;;;8.82;;
13580;SDS011;6861;46.170;7.222;2023-12-20T06:48:49;14.38;;;9.60;;
13580;SDS011;6861;46.170;7.222;2023-12-20T06:51:17;20.80;;;11.35;;
13580;SDS011;6861;46.170;7.222;2023-12-20T06:53:46;21.35;;;10.90;;
13580;SDS011;6861;46.170;7.222;2023-12-20T06:56:15;17.98;;;11.00;;
13580;SDS011;6861;46.170;7.222;2023-12-20T06:58:45;15.07;;;9.67;;
13580;SDS011;6861;46.170;7.222;2023-12-20T07:01:15;18.25;;;10.00;;
13580;SDS011;6861;46.170;7.222;2023-12-20T07:03:44;23.50;;;11.18;;
13580;SDS011;6861;46.170;7.222;2023-12-20T07:06:13;15.15;;;9.63;;
13580;SDS011;6861;46.170;7.222;2023-12-20T07:08:43;18.52;;;9.73;;
13580;SDS011;6861;46.170;7.222;2023-12-20T07:11:12;18.65;;;10.23;;
13580;SDS011;6861;46.170;7.222;2023-12-20T07:13:40;14.07;;;8.15;;
13580;SDS011;6861;46.170;7.222;2023-12-20T07:16:08;13.60;;;8.48;;
13580;SDS011;6861;46.170;7.222;2023-12-20T07:18:38;14.60;;;9.00;;
13580;SDS011;6861;46.170;7.222;2023-12-20T07:21:06;18.45;;;9.27;;
13580;SDS011;6861;46.170;7.222;2023-12-20T07:23:35;18.63;;;10.13;;
13580;SDS011;6861;46.170;7.222;2023-12-20T07:26:04;14.70;;;8.10;;
13580;SDS011;6861;46.170;7.222;2023-12-20T07:28:32;14.93;;;8.35;;
13580;SDS011;6861;46.170;7.222;2023-12-20T07:31:00;20.17;;;10.17;;
13580;SDS011;6861;46.170;7.222;2023-12-20T07:33:29;13.07;;;8.82;;
13580;SDS011;6861;46.170;7.222;2023-12-20T07:36:06;18.77;;;9.20;;
13580;SDS011;6861;46.170;7.222;2023-12-20T07:38:35;16.55;;;9.85;;
13580;SDS011;6861;46.170;7.222;2023-12-20T07:41:03;13.82;;;8.82;;
13580;SDS011;6861;46.170;7.222;2023-12-20T07:43:32;15.88;;;9.40;;
13580;SDS011;6861;46.170;7.222;2023-12-20T07:46:04;27.45;;;12.77;;
13580;SDS011;6861;46.170;7.222;2023-12-20T07:48:33;20.33;;;12.60;;
13580;SDS011;6861;46.170;7.222;2023-12-20T07:51:03;17.92;;;9.88;;
13580;SDS011;6861;46.170;7.222;2023-12-20T07:53:34;28.52;;;11.88;;
13580;SDS011;6861;46.170;7.222;2023-12-20T07:56:13;20.48;;;11.57;;
13580;SDS011;6861;46.170;7.222;2023-12-20T07:58:42;21.40;;;11.25;;
13580;SDS011;6861;46.170;7.222;2023-12-20T08:01:18;21.77;;;11.25;;
13580;SDS011;6861;46.170;7.222;2023-12-20T08:03:48;14.55;;;9.80;;
13580;SDS011;6861;46.170;7.222;2023-12-20T08:06:17;15.40;;;9.85;;
13580;SDS011;6861;46.170;7.222;2023-12-20T08:08:47;17.13;;;9.82;;
13580;SDS011;6861;46.170;7.222;2023-12-20T08:11:27;15.50;;;9.23;;
13580;SDS011;6861;46.170;7.222;2023-12-20T08:13:56;15.93;;;10.15;;
13580;SDS011;6861;46.170;7.222;2023-12-20T08:16:25;15.50;;;9.35;;
13580;SDS011;6861;46.170;7.222;2023-12-20T08:18:53;14.52;;;8.95;;
13580;SDS011;6861;46.170;7.222;2023-12-20T08:21:22;12.50;;;8.95;;
13580;SDS011;6861;46.170;7.222;2023-12-20T08:23:52;15.35;;;9.45;;
13580;SDS011;6861;46.170;7.222;2023-12-20T08:26:20;17.52;;;9.98;;
13580;SDS011;6861;46.170;7.222;2023-12-20T08:28:49;22.17;;;11.98;;
13580;SDS011;6861;46.170;7.222;2023-12-20T08:31:18;19.95;;;10.20;;
13580;SDS011;6861;46.170;7.222;2023-12-20T08:33:48;17.35;;;8.63;;
13580;SDS011;6861;46.170;7.222;2023-12-20T08:36:17;12.68;;;8.60;;
13580;SDS011;6861;46.170;7.222;2023-12-20T08:38:46;13.52;;;9.32;;
13580;SDS011;6861;46.170;7.222;2023-12-20T08:41:15;17.40;;;9.05;;
13580;SDS011;6861;46.170;7.222;2023-12-20T08:43:44;11.43;;;8.38;;
13580;SDS011;6861;46.170;7.222;2023-12-20T08:46:13;14.20;;;8.57;;
13580;SDS011;6861;46.170;7.222;2023-12-20T08:48:42;13.32;;;7.47;;
13580;SDS011;6861;46.170;7.222;2023-12-20T08:51:11;11.48;;;7.28;;
13580;SDS011;6861;46.170;7.222;2023-12-20T08:53:40;10.63;;;7.35;;
13580;SDS011;6861;46.170;7.222;2023-12-20T08:56:12;10.55;;;7.70;;
13580;SDS011;6861;46.170;7.222;2023-12-20T08:58:41;13.63;;;7.25;;
13580;SDS011;6861;46.170;7.222;2023-12-20T09:01:10;17.77;;;9.18;;
13580;SDS011;6861;46.170;7.222;2023-12-20T09:03:39;31.90;;;12.10;;
13580;SDS011;6861;46.170;7.222;2023-12-20T09:06:07;14.07;;;8.43;;
13580;SDS011;6861;46.170;7.222;2023-12-20T09:08:36;9.77;;;7.53;;
13580;SDS011;6861;46.170;7.222;2023-12-20T09:11:04;17.10;;;7.95;;
13580;SDS011;6861;46.170;7.222;2023-12-20T09:13:33;23.52;;;14.45;;
13580;SDS011;6861;46.170;7.222;2023-12-20T09:16:03;16.95;;;10.18;;
13580;SDS011;6861;46.170;7.222;2023-12-20T09:18:32;17.98;;;9.90;;
13580;SDS011;6861;46.170;7.222;2023-12-20T09:21:00;14.88;;;9.13;;
13580;SDS011;6861;46.170;7.222;2023-12-20T09:23:28;10.95;;;8.52;;
13580;SDS011;6861;46.170;7.222;2023-12-20T09:25:57;13.38;;;7.63;;
13580;SDS011;6861;46.170;7.222;2023-12-20T09:28:25;15.02;;;8.32;;
13580;SDS011;6861;46.170;7.222;2023-12-20T09:30:53;9.55;;;7.13;;
13580;SDS011;6861;46.170;7.222;2023-12-20T09:33:24;11.30;;;7.90;;
13580;SDS011;6861;46.170;7.222;2023-12-20T09:35:53;8.73;;;6.55;;
13580;SDS011;6861;46.170;7.222;2023-12-20T09:38:22;5.60;;;4.00;;
13580;SDS011;6861;46.170;7.222;2023-12-20T09:40:50;9.10;;;5.93;;
13580;SDS011;6861;46.170;7.222;2023-12-20T09:43:19;8.85;;;6.47;;
13580;SDS011;6861;46.170;7.222;2023-12-20T09:45:48;9.02;;;6.40;;
13580;SDS011;6861;46.170;7.222;2023-12-20T09:48:21;18.40;;;10.25;;
13580;SDS011;6861;46.170;7.222;2023-12-20T09:50:51;13.50;;;9.70;;
13580;SDS011;6861;46.170;7.222;2023-12-20T09:53:19;12.32;;;8.30;;
13580;SDS011;6861;46.170;7.222;2023-12-20T09:55:56;12.88;;;8.48;;
13580;SDS011;6861;46.170;7.222;2023-12-20T09:58:27;10.98;;;8.35;;
13580;SDS011;6861;46.170;7.222;2023-12-20T10:00:56;11.23;;;8.50;;
13580;SDS011;6861;46.170;7.222;2023-12-20T10:03:25;13.18;;;8.05;;
13580;SDS011;6861;46.170;7.222;2023-12-20T10:05:56;10.43;;;7.20;;
13580;SDS011;6861;46.170;7.222;2023-12-20T10:08:25;10.02;;;7.80;;
13580;SDS011;6861;46.170;7.222;2023-12-20T10:10:54;14.98;;;9.88;;
13580;SDS011;6861;46.170;7.222;2023-12-20T10:13:24;18.45;;;12.23;;
13580;SDS011;6861;46.170;7.222;2023-12-20T10:15:54;11.63;;;7.72;;
13580;SDS011;6861;46.170;7.222;2023-12-20T10:18:23;13.05;;;7.70;;
13580;SDS011;6861;46.170;7.222;2023-12-20T10:21:06;9.88;;;7.15;;
13580;SDS011;6861;46.170;7.222;2023-12-20T10:23:37;11.13;;;7.90;;
13580;SDS011;6861;46.170;7.222;2023-12-20T10:26:06;12.65;;;8.35;;
13580;SDS011;6861;46.170;7.222;2023-12-20T10:28:36;11.45;;;7.32;;
13580;SDS011;6861;46.170;7.222;2023-12-20T10:31:05;9.07;;;6.47;;
13580;SDS011;6861;46.170;7.222;2023-12-20T10:33:34;10.10;;;6.80;;
13580;SDS011;6861;46.170;7.222;2023-12-20T10:36:02;10.02;;;6.97;;
13580;SDS011;6861;46.170;7.222;2023-12-20T10:38:33;11.35;;;7.47;;
13580;SDS011;6861;46.170;7.222;2023-12-20T10:41:06;5.63;;;2.83;;
13580;SDS011;6861;46.170;7.222;2023-12-20T10:43:37;5.10;;;3.40;;
13580;SDS011;6861;46.170;7.222;2023-12-20T10:46:06;14.68;;;7.45;;
13580;SDS011;6861;46.170;7.222;2023-12-20T10:48:36;7.25;;;3.20;;
13580;SDS011;6861;46.170;7.222;2023-12-20T10:51:07;7.22;;;4.53;;
13580;SDS011;6861;46.170;7.222;2023-12-20T10:53:38;2.60;;;1.90;;
13580;SDS011;6861;46.170;7.222;2023-12-20T10:56:07;2.40;;;1.80;;
13580;SDS011;6861;46.170;7.222;2023-12-20T10:58:40;2.55;;;1.90;;
13580;SDS011;6861;46.170;7.222;2023-12-20T11:01:10;2.92;;;2.00;;
13580;SDS011;6861;46.170;7.222;2023-12-20T11:03:42;2.17;;;1.92;;
13580;SDS011;6861;46.170;7.222;2023-12-20T11:06:18;2.65;;;1.88;;
13580;SDS011;6861;46.170;7.222;2023-12-20T11:08:58;2.05;;;1.70;;
13580;SDS011;6861;46.170;7.222;2023-12-20T11:11:38;4.38;;;1.90;;
13580;SDS011;6861;46.170;7.222;2023-12-20T11:14:22;2.30;;;1.80;;
13580;SDS011;6861;46.170;7.222;2023-12-20T11:17:04;2.75;;;2.20;;
13580;SDS011;6861;46.170;7.222;2023-12-20T11:19:35;2.38;;;1.50;;
13580;SDS011;6861;46.170;7.222;2023-12-20T11:22:05;3.15;;;1.20;;
13580;SDS011;6861;46.170;7.222;2023-12-20T11:24:35;1.88;;;1.45;;
13580;SDS011;6861;46.170;7.222;2023-12-20T11:27:12;2.25;;;1.60;;
13580;SDS011;6861;46.170;7.222;2023-12-20T11:29:41;2.15;;;1.48;;
13580;SDS011;6861;46.170;7.222;2023-12-20T11:34:58;1.20;;;0.93;;
13580;SDS011;6861;46.170;7.222;2023-12-20T11:37:29;1.42;;;1.30;;
13580;SDS011;6861;46.170;7.222;2023-12-20T11:40:02;10.52;;;2.92;;
13580;SDS011;6861;46.170;7.222;2023-12-20T11:42:37;7.18;;;2.20;;
13580;SDS011;6861;46.170;7.222;2023-12-20T11:45:08;1.15;;;0.77;;
13580;SDS011;6861;46.170;7.222;2023-12-20T11:47:37;1.20;;;0.82;;
13580;SDS011;6861;46.170;7.222;2023-12-20T11:50:06;1.30;;;1.00;;
13580;SDS011;6861;46.170;7.222;2023-12-20T11:52:35;0.85;;;0.80;;
13580;SDS011;6861;46.170;7.222;2023-12-20T11:55:05;1.00;;;0.85;;
13580;SDS011;6861;46.170;7.222;2023-12-20T11:57:34;0.90;;;0.73;;
13580;SDS011;6861;46.170;7.222;2023-12-20T12:00:04;1.17;;;0.90;;
13580;SDS011;6861;46.170;7.222;2023-12-20T12:02:34;1.40;;;1.00;;
13580;SDS011;6861;46.170;7.222;2023-12-20T12:05:05;1.40;;;0.82;;
13580;SDS011;6861;46.170;7.222;2023-12-20T12:07:35;1.02;;;0.90;;
13580;SDS011;6861;46.170;7.222;2023-12-20T12:10:05;1.30;;;0.70;;
13580;SDS011;6861;46.170;7.222;2023-12-20T12:12:35;2.60;;;0.98;;
13580;SDS011;6861;46.170;7.222;2023-12-20T12:15:04;0.95;;;0.60;;
13580;SDS011;6861;46.170;7.222;2023-12-20T12:17:34;1.20;;;0.60;;
13580;SDS011;6861;46.170;7.222;2023-12-20T12:20:03;0.80;;;0.60;;
13580;SDS011;6861;46.170;7.222;2023-12-20T12:22:33;0.50;;;0.45;;
13580;SDS011;6861;46.170;7.222;2023-12-20T12:25:10;1.05;;;0.70;;
13580;SDS011;6861;46.170;7.222;2023-12-20T12:27:40;1.23;;;0.73;;
13580;SDS011;6861;46.170;7.222;2023-12-20T12:30:10;0.77;;;0.57;;
13580;SDS011;6861;46.170;7.222;2023-12-20T12:32:40;1.05;;;0.63;;
13580;SDS011;6861;46.170;7.222;2023-12-20T12:35:10;1.60;;;0.50;;
13580;SDS011;6861;46.170;7.222;2023-12-20T12:37:39;2.25;;;0.57;;
13580;SDS011;6861;46.170;7.222;2023-12-20T12:40:11;2.05;;;0.60;;
13580;SDS011;6861;46.170;7.222;2023-12-20T12:42:41;0.70;;;0.50;;
13580;SDS011;6861;46.170;7.222;2023-12-20T12:45:10;0.93;;;0.68;;
13580;SDS011;6861;46.170;7.222;2023-12-20T12:47:39;2.92;;;0.80;;
13580;SDS011;6861;46.170;7.222;2023-12-20T12:50:08;1.10;;;0.65;;
13580;SDS011;6861;46.170;7.222;2023-12-20T12:52:40;1.55;;;0.70;;
13580;SDS011;6861;46.170;7.222;2023-12-20T12:55:08;1.23;;;0.88;;
13580;SDS011;6861;46.170;7.222;2023-12-20T12:57:41;1.08;;;0.60;;
13580;SDS011;6861;46.170;7.222;2023-12-20T13:00:14;0.75;;;0.50;;
13580;SDS011;6861;46.170;7.222;2023-12-20T13:02:43;0.90;;;0.50;;
13580;SDS011;6861;46.170;7.222;2023-12-20T13:05:11;1.10;;;0.73;;
13580;SDS011;6861;46.170;7.222;2023-12-20T13:07:40;0.70;;;0.47;;
13580;SDS011;6861;46.170;7.222;2023-12-20T13:10:14;1.23;;;0.60;;
13580;SDS011;6861;46.170;7.222;2023-12-20T13:12:43;0.45;;;0.30;;
13580;SDS011;6861;46.170;7.222;2023-12-20T13:15:12;0.50;;;0.50;;
13580;SDS011;6861;46.170;7.222;2023-12-20T13:17:40;0.95;;;0.60;;
13580;SDS011;6861;46.170;7.222;2023-12-20T13:20:09;1.08;;;0.70;;
13580;SDS011;6861;46.170;7.222;2023-12-20T13:22:38;0.85;;;0.60;;
13580;SDS011;6861;46.170;7.222;2023-12-20T13:25:07;1.67;;;0.60;;
13580;SDS011;6861;46.170;7.222;2023-12-20T13:27:37;2.15;;;0.65;;
13580;SDS011;6861;46.170;7.222;2023-12-20T13:30:05;1.90;;;0.50;;
13580;SDS011;6861;46.170;7.222;2023-12-20T13:32:34;0.60;;;0.40;;
13580;SDS011;6861;46.170;7.222;2023-12-20T13:35:03;0.95;;;0.50;;
13580;SDS011;6861;46.170;7.222;2023-12-20T13:37:33;0.40;;;0.32;;
13580;SDS011;6861;46.170;7.222;2023-12-20T13:40:02;1.38;;;0.50;;
13580;SDS011;6861;46.170;7.222;2023-12-20T13:42:31;1.75;;;0.38;;
13580;SDS011;6861;46.170;7.222;2023-12-20T13:45:01;0.60;;;0.60;;
13580;SDS011;6861;46.170;7.222;2023-12-20T13:47:31;0.80;;;0.60;;
13580;SDS011;6861;46.170;7.222;2023-12-20T13:50:00;0.93;;;0.77;;
13580;SDS011;6861;46.170;7.222;2023-12-20T13:52:28;1.45;;;0.73;;
13580;SDS011;6861;46.170;7.222;2023-12-20T13:54:56;1.45;;;0.82;;
13580;SDS011;6861;46.170;7.222;2023-12-20T13:57:25;0.90;;;0.80;;
13580;SDS011;6861;46.170;7.222;2023-12-20T14:00:17;3.05;;;1.20;;
13580;SDS011;6861;46.170;7.222;2023-12-20T14:02:46;1.75;;;0.88;;
13580;SDS011;6861;46.170;7.222;2023-12-20T14:05:14;2.17;;;1.23;;
13580;SDS011;6861;46.170;7.222;2023-12-20T14:07:45;1.20;;;1.00;;
13580;SDS011;6861;46.170;7.222;2023-12-20T14:10:16;1.50;;;1.30;;
13580;SDS011;6861;46.170;7.222;2023-12-20T14:12:44;1.65;;;1.23;;
13580;SDS011;6861;46.170;7.222;2023-12-20T14:15:13;1.42;;;1.27;;
13580;SDS011;6861;46.170;7.222;2023-12-20T14:17:44;2.53;;;1.00;;
13580;SDS011;6861;46.170;7.222;2023-12-20T14:20:13;1.50;;;1.10;;
13580;SDS011;6861;46.170;7.222;2023-12-20T14:22:41;1.23;;;1.10;;
13580;SDS011;6861;46.170;7.222;2023-12-20T14:25:11;1.80;;;1.10;;
13580;SDS011;6861;46.170;7.222;2023-12-20T14:27:41;2.53;;;1.00;;
13580;SDS011;6861;46.170;7.222;2023-12-20T14:30:12;1.92;;;1.27;;
13580;SDS011;6861;46.170;7.222;2023-12-20T14:32:44;1.10;;;1.00;;
13580;SDS011;6861;46.170;7.222;2023-12-20T14:35:14;1.50;;;1.20;;
13580;SDS011;6861;46.170;7.222;2023-12-20T14:37:43;1.23;;;1.00;;
13580;SDS011;6861;46.170;7.222;2023-12-20T14:40:12;0.70;;;0.70;;
13580;SDS011;6861;46.170;7.222;2023-12-20T14:42:43;1.58;;;1.02;;
13580;SDS011;6861;46.170;7.222;2023-12-20T14:45:12;2.72;;;1.30;;
13580;SDS011;6861;46.170;7.222;2023-12-20T14:47:41;2.45;;;1.33;;
13580;SDS011;6861;46.170;7.222;2023-12-20T14:50:12;1.90;;;1.50;;
13580;SDS011;6861;46.170;7.222;2023-12-20T14:52:46;1.38;;;1.25;;
13580;SDS011;6861;46.170;7.222;2023-12-20T14:55:14;1.58;;;1.40;;
13580;SDS011;6861;46.170;7.222;2023-12-20T14:57:44;1.42;;;1.25;;
13580;SDS011;6861;46.170;7.222;2023-12-20T15:00:13;1.67;;;1.23;;
13580;SDS011;6861;46.170;7.222;2023-12-20T15:02:43;1.52;;;1.10;;